Terminal Aerodrome Forecast
Issued by NWS

Home | Current Version | Previous Version | Graphics & Text | Print | Product List | Glossary On
Versions: 1 2 3 4 5 6 7 8 9 10 11 12 13 14 15 16 17 18 19 20 21
000
FTUS43 KGRB 282300 RRA
TAFMTW
TAF
KMTW 282343Z 2900/2924 21010KT 6SM -SN BR SCT018 OVC035
      TEMPO 2900/2902 2SM -SN OVC018
     FM290300 17008KT P6SM SCT018 OVC050
      TEMPO 2903/2907 5SM -PLSN BR BKN018
     FM290700 17008KT 5SM BR BKN018 OVC100
      TEMPO 2907/2911 -FZDZ
     FM291600 18011KT 6SM HZ BKN018
     FM292000 19011KT P6SM SCT020=

USA.gov is the U.S. government's official web portal to all federal, state and local government web resources and services.